Map

Track Data

SID SEASON NUMBER BASIN SUBBASIN NAME ISO_TIME NATURE LAT LON WMO_WIND WMO_PRES WMO_AGENCY TRACK_TYPE DIST2LAND LANDFALL IFLAG USA_AGENCY USA_ATCF_ID USA_LAT USA_LON USA_RECORD USA_STATUS USA_WIND USA_PRES USA_SSHS USA_R34_NE USA_R34_SE USA_R34_SW USA_R34_NW USA_R50_NE USA_R50_SE USA_R50_SW USA_R50_NW USA_R64_NE USA_R64_SE USA_R64_SW USA_R64_NW USA_POCI USA_ROCI USA_RMW USA_EYE TOKYO_LAT TOKYO_LON TOKYO_GRADE TOKYO_WIND TOKYO_PRES TOKYO_R50_DIR TOKYO_R50_LONG TOKYO_R50_SHORT TOKYO_R30_DIR TOKYO_R30_LONG TOKYO_R30_SHORT TOKYO_LAND CMA_LAT CMA_LON CMA_CAT CMA_WIND CMA_PRES HKO_LAT HKO_LON HKO_CAT HKO_WIND HKO_PRES NEWDELHI_LAT NEWDELHI_LON NEWDELHI_GRADE NEWDELHI_WIND NEWDELHI_PRES NEWDELHI_CI NEWDELHI_DP NEWDELHI_POCI REUNION_LAT REUNION_LON REUNION_TYPE REUNION_WIND REUNION_PRES REUNION_TNUM REUNION_CI REUNION_RMW REUNION_R34_NE REUNION_R34_SE REUNION_R34_SW REUNION_R34_NW REUNION_R50_NE REUNION_R50_SE REUNION_R50_SW REUNION_R50_NW REUNION_R64_NE REUNION_R64_SE REUNION_R64_SW REUNION_R64_NW BOM_LAT BOM_LON BOM_TYPE BOM_WIND BOM_PRES BOM_TNUM BOM_CI BOM_RMW BOM_R34_NE BOM_R34_SE BOM_R34_SW BOM_R34_NW BOM_R50_NE BOM_R50_SE BOM_R50_SW BOM_R50_NW BOM_R64_NE BOM_R64_SE BOM_R64_SW BOM_R64_NW BOM_ROCI BOM_POCI BOM_EYE BOM_POS_METHOD BOM_PRES_METHOD NADI_LAT NADI_LON NADI_CAT NADI_WIND NADI_PRES WELLINGTON_LAT WELLINGTON_LON WELLINGTON_WIND WELLINGTON_PRES DS824_LAT DS824_LON DS824_STAGE DS824_WIND DS824_PRES TD9636_LAT TD9636_LON TD9636_STAGE TD9636_WIND TD9636_PRES TD9635_LAT TD9635_LON TD9635_WIND TD9635_PRES TD9635_ROCI NEUMANN_LAT NEUMANN_LON NEUMANN_CLASS NEUMANN_WIND NEUMANN_PRES MLC_LAT MLC_LON MLC_CLASS MLC_WIND MLC_PRES USA_GUST BOM_GUST BOM_GUST_PER REUNION_GUST REUNION_GUST_PER USA_SEAHGT USA_SEARAD_NE USA_SEARAD_SE USA_SEARAD_SW USA_SEARAD_NW STORM_SPEED STORM_DIR
1971154N20088 1971 53 NI BB NOT_NAMED 1971-06-03 03:00:00 NR 19.6000 88.0000 main 156 156 __________O___ -1 19.6000 88.0000 1 0 0
1971154N20088 1971 53 NI BB NOT_NAMED 1971-06-03 06:00:00 TS 19.5883 88.0008 main 156 156 O________OP___ jtwc_io IO031971 19.6000 88.0000 -1 19.6000 88.0000 TC 25 19.5766 88.0015 1 0 0
1971154N20088 1971 53 NI BB NOT_NAMED 1971-06-03 09:00:00 TS 19.5796 88.0011 main 156 156 P________PP___ IO031971 19.5925 88.0000 -1 19.5925 88.0000 TC 25 19.5625 88.0025 1 0 0
1971154N20088 1971 53 NI BB NOT_NAMED 1971-06-03 12:00:00 TS 19.5869 88.0009 main 156 156 O________OP___ jtwc_io IO031971 19.6000 88.0000 -1 19.6000 88.0000 TC 25 19.5672 88.0022 1 0 0
1971154N20088 1971 53 NI BB NOT_NAMED 1971-06-03 15:00:00 TS 19.6233 88.0000 main 156 151 P________PO___ IO031971 19.6350 88.0000 -1 19.6350 88.0000 TC 25 19.6000 88.0000 1 1 349
1971154N20088 1971 53 NI BB NOT_NAMED 1971-06-03 18:00:00 TS 19.6896 87.9987 main 151 144 O________OP___ jtwc_io IO031971 19.7000 88.0000 -1 19.7000 88.0000 TC 25 19.6688 87.9960 1 2 0
1971154N20088 1971 53 NI BB NOT_NAMED 1971-06-03 21:00:00 TS 19.7767 87.9975 main 144 137 P________PP___ IO031971 19.7775 88.0000 -1 19.7775 88.0000 TC 25 19.7750 87.9926 1 2 359
1971154N20088 1971 53 NI BB NOT_NAMED 1971-06-04 00:00:00 TS 19.9062 87.9976 main 137 123 O________OP___ jtwc_io IO031971 19.9000 88.0000 -1 19.9000 88.0000 TC 25 19.9188 87.9929 1 3 356
1971154N20088 1971 53 NI BB NOT_NAMED 1971-06-04 03:00:00 TS 20.0800 87.9950 main 123 113 P________PO___ IO031971 20.0700 87.9925 -1 20.0700 87.9925 TC 25 20.1000 88.0000 1 4 2
1971154N20088 1971 53 NI BB NOT_NAMED 1971-06-04 06:00:00 TS 20.3115 88.0046 main 113 104 O________OP___ jtwc_io IO031971 20.3000 88.0000 -1 20.3000 88.0000 TC 25 20.3344 88.0137 1 5 5
1971154N20088 1971 53 NI BB NOT_NAMED 1971-06-04 09:00:00 TS 20.6000 88.0449 main 104 78 P________PP___ IO031971 20.6000 88.0499 -1 20.6000 88.0499 TC 30 20.6000 88.0350 1 6 8
1971154N20088 1971 53 NI BB NOT_NAMED 1971-06-04 12:00:00 TS 20.8885 88.0879 main 78 56 O________OP___ jtwc_io IO031971 20.9000 88.1000 -1 20.9000 88.1000 TC 35 20.8656 88.0637 1 5 7
1971154N20088 1971 53 NI BB NOT_NAMED 1971-06-04 15:00:00 TS 21.1200 88.1000 main 56 35 P________PO___ IO031971 21.1300 88.1001 -1 21.1300 88.1001 TC 35 21.1000 88.1000 2 4 0
1971154N20088 1971 53 NI BB NOT_NAMED 1971-06-04 18:00:00 TS 21.2802 88.1156 main 35 22 O________OP___ jtwc_io IO031971 21.3000 88.1000 -1 21.3000 88.1000 TC 35 21.2406 88.1469 2 3 12
1971154N20088 1971 53 NI BB NOT_NAMED 1971-06-04 21:00:00 TS 21.3883 88.1617 main 22 11 P________PP___ IO031971 21.4075 88.1425 -1 21.4075 88.1425 TC 35 21.3500 88.2001 2 2 25
1971154N20088 1971 53 NI BB NOT_NAMED 1971-06-05 00:00:00 TS 21.4865 88.2177 main 11 0 O________OP___ jtwc_io IO031971 21.5000 88.2000 -1 21.5000 88.2000 TC 35 21.4594 88.2532 2 2 23
1971154N20088 1971 53 NI BB NOT_NAMED 1971-06-05 03:00:00 TS 21.6133 88.2667 main 0 0 P________PO___ IO031971 21.6200 88.2500 -1 21.6200 88.2500 TC 35 21.6000 88.3000 2 4 19
1971154N20088 1971 53 NI BB NOT_NAMED 1971-06-05 06:00:00 TS 21.8153 88.3403 main 0 0 O________OP___ jtwc_io IO031971 21.8000 88.3000 -1 21.8000 88.3000 TC 35 21.8460 88.4209 2 5 17
1971154N20088 1971 53 NI BB NOT_NAMED 1971-06-05 09:00:00 TS 22.1071 88.4271 main 0 0 P________PP___ IO031971 22.1000 88.3798 -1 22.1000 88.3798 TC 35 22.1215 88.5217 2 6 10
1971154N20088 1971 53 NI BB NOT_NAMED 1971-06-05 12:00:00 TS 22.3954 88.4456 main 0 0 O________OP___ jtwc_io IO031971 22.4000 88.4000 -1 22.4000 88.4000 TC 35 22.3862 88.5367 2 5 353
1971154N20088 1971 53 NI BB NOT_NAMED 1971-06-05 15:00:00 TS 22.5964 88.3700 main 0 0 P________PO___ IO031971 22.5946 88.3551 -1 22.5946 88.3551 TC 30 22.6000 88.4000 2 5 311
1971154N20088 1971 53 NI BB NOT_NAMED 1971-06-05 18:00:00 TS 22.6990 88.0668 main 0 0 O________OP___ jtwc_io IO031971 22.7000 88.1000 -1 22.7000 88.1000 TC 25 22.6969 88.0005 2 8 278
1971154N20088 1971 53 NI BB NOT_NAMED 1971-06-05 21:00:00 TS 22.7188 87.4813 main 0 0 P________PP___ IO031971 22.7082 87.4947 -1 22.7082 87.4947 TC 25 22.7399 87.4545 2 12 271
1971154N20088 1971 53 NI BB NOT_NAMED 1971-06-06 00:00:00 TS 22.7209 86.8188 main 0 0 O________OP___ jtwc_io IO031971 22.7000 86.8000 -1 22.7000 86.8000 TC 25 22.7626 86.8564 2 11 273
1971154N20088 1971 53 NI BB NOT_NAMED 1971-06-06 03:00:00 TS 22.7848 86.3034 main 0 0 P________PO___ IO031971 22.7772 86.3051 -1 22.7772 86.3051 TC 25 22.8000 86.3000 6 9 282
1971154N20088 1971 53 NI BB NOT_NAMED 1971-06-06 06:00:00 TS 22.9037 85.8938 main 0 0 O________OP___ jtwc_io IO031971 22.9000 85.9000 -1 22.9000 85.9000 TC 25 22.9110 85.8813 6 8 290
1971154N20088 1971 53 NI BB NOT_NAMED 1971-06-06 09:00:00 TS 23.0473 85.5110 main 0 0 P________PP___ IO031971 23.0500 85.5051 -1 23.0500 85.5051 TC 25 23.0419 85.5230 6 7 295
1971154N20088 1971 53 NI BB NOT_NAMED 1971-06-06 12:00:00 TS 23.1923 85.2094 main 0 0 O________OP___ jtwc_io IO031971 23.2000 85.2000 -1 23.2000 85.2000 TC 25 23.1769 85.2281 6 5 300
1971154N20088 1971 53 NI BB NOT_NAMED 1971-06-06 15:00:00 TS 23.3099 85.0083 main 0 0 P________PO___ IO031971 23.3149 85.0124 -1 23.3149 85.0124 TC 25 23.3000 85.0000 6 4 303
1971154N20088 1971 53 NI BB NOT_NAMED 1971-06-06 18:00:00 TS 23.3896 84.8756 main 0 0 O________OP___ jtwc_io IO031971 23.4000 84.9000 -1 23.4000 84.9000 TC 25 23.3687 84.8268 6 3 300
1971154N20088 1971 53 NI BB NOT_NAMED 1971-06-06 21:00:00 TS 23.4373 84.7673 main 0 0 P________PP___ IO031971 23.4425 84.7924 -1 23.4425 84.7924 TC 25 23.4270 84.7170 6 2 302
1971154N20088 1971 53 NI BB NOT_NAMED 1971-06-07 00:00:00 TS 23.4990 84.6829 main 0 0 O________OP___ jtwc_io IO031971 23.5000 84.7000 -1 23.5000 84.7000 TC 25 23.4969 84.6488 6 2 319
1971154N20088 1971 53 NI BB NOT_NAMED 1971-06-07 03:00:00 TS 23.6183 84.5950 main 0 0 P________PO___ IO031971 23.6275 84.5925 -1 23.6275 84.5925 TC 25 23.6000 84.6000 6 3 332
1971154N20088 1971 53 NI BB NOT_NAMED 1971-06-07 06:00:00 TS 23.7948 84.5105 main 0 0 O________OP___ jtwc_io IO031971 23.8000 84.5000 -1 23.8000 84.5000 TC 25 23.7843 84.5316 6 4 341
1971154N20088 1971 53 NI BB NOT_NAMED 1971-06-07 09:00:00 TS 24.0000 84.4492 main 0 0 P________PP___ IO031971 24.0000 84.4350 -1 24.0000 84.4350 TC 25 24.0000 84.4776 6 4 347
1971154N20088 1971 53 NI BB NOT_NAMED 1971-06-07 12:00:00 TS 24.2052 84.4116 main 0 0 O________OP___ jtwc_io IO031971 24.2000 84.4000 -1 24.2000 84.4000 TC 25 24.2156 84.4347 6 4 353
1971154N20088 1971 53 NI BB NOT_NAMED 1971-06-07 15:00:00 TS 24.3767 84.4000 main 0 0 P________PO___ IO031971 24.3650 84.3999 -1 24.3650 84.3999 TC 25 24.4000 84.4000 6 3 0
1971154N20088 1971 53 NI BB NOT_NAMED 1971-06-07 18:00:00 TS 24.5119 84.3882 main 0 0 O________OP___ jtwc_io IO031971 24.5000 84.4000 -1 24.5000 84.4000 TC 25 24.5297 84.3706 6 2 349
1971154N20088 1971 53 NI BB NOT_NAMED 1971-06-07 21:00:00 TS 24.6097 84.3550 main 0 0 P________PP___ IO031971 24.6075 84.3625 -1 24.6075 84.3625 TC 25 24.6125 84.3449 6 2 340
1971154N20088 1971 53 NI BB NOT_NAMED 1971-06-08 00:00:00 TS 24.6820 84.3109 main 0 0 O________OP___ jtwc_io IO031971 24.7000 84.3000 -1 24.7000 84.3000 TC 25 24.6641 84.3218 6 1 330
1971154N20088 1971 53 NI BB NOT_NAMED 1971-06-08 03:00:00 NR 24.7000 84.3000 main 0 __________O___ IO031971 -1 TC 24.7000 84.3000 6 0 0

About IBTrACS Database

This database is a web-friendly format of International Best Track Archive for Climate Stewardship (IBTrACS), a global best track data archive curated by NOAA dating back to 1842.

Updated: 2021-10-25